Time;durP1;ratioP1;P1;durP2;ratioP2;P2;SDS_P1;SDS_P2;PMS_P1;PMS_P2;Temp;Humidity;BMP_temperature;BMP_pressure;BME280_temperature;BME280_humidity;BME280_pressure;Samples;Min_cycle;Max_cycle;Signal;HPM_P1;HPM_P2
2023/01/24 00:00:32;;;;;;;12.83;9.10;;;;;;;-0.79;100.00;97804.84;5074482;28;20581;-73
2023/01/24 00:02:59;;;;;;;9.77;8.37;;;;;;;-0.85;100.00;97802.28;5064730;28;20437;-73
2023/01/24 00:05:25;;;;;;;15.10;10.30;;;;;;;-0.89;100.00;97804.53;5076390;28;20482;-73
2023/01/24 00:07:52;;;;;;;13.53;9.30;;;;;;;-0.90;100.00;97801.16;5074350;28;21064;-71
2023/01/24 00:10:19;;;;;;;13.17;10.67;;;;;;;-1.02;100.00;97776.91;5069784;28;20447;-71
2023/01/24 00:12:45;;;;;;;11.90;9.07;;;;;;;-0.99;100.00;97784.25;5058092;28;20462;-72
2023/01/24 00:15:12;;;;;;;16.17;9.90;;;;;;;-0.85;100.00;97794.50;5076622;28;21023;-72
2023/01/24 00:17:39;;;;;;;13.33;8.90;;;;;;;-0.98;100.00;97777.28;5074793;28;20453;-72
2023/01/24 00:20:06;;;;;;;15.77;9.37;;;;;;;-0.75;100.00;97805.97;5072378;28;20467;-71
2023/01/24 00:22:33;;;;;;;10.00;8.43;;;;;;;-0.95;100.00;97805.38;5049978;28;20544;-71
2023/01/24 00:25:02;;;;;;;12.47;8.87;;;;;;;-0.83;100.00;97806.25;5061533;28;20480;-75
2023/01/24 00:27:31;;;;;;;9.67;8.67;;;;;;;-0.82;100.00;97807.03;5070232;28;20490;-75
2023/01/24 00:29:58;;;;;;;15.83;10.53;;;;;;;-0.84;100.00;97824.66;5068803;28;20443;-74
2023/01/24 00:32:24;;;;;;;12.47;9.53;;;;;;;-1.22;100.00;97743.38;5068820;28;20442;-75
2023/01/24 00:34:51;;;;;;;17.00;8.80;;;;;;;-1.14;100.00;97781.22;5082449;28;20450;-74
2023/01/24 00:37:20;;;;;;;13.90;10.70;;;;;;;-1.13;100.00;97777.63;5057732;28;20440;-74
2023/01/24 00:39:47;;;;;;;15.90;9.40;;;;;;;-1.07;100.00;97789.75;5073741;28;20420;-74
2023/01/24 00:42:14;;;;;;;12.60;8.70;;;;;;;-1.42;100.00;97724.63;5077570;28;20460;-75
2023/01/24 00:44:44;;;;;;;12.77;10.37;;;;;;;-1.77;100.00;97687.25;5067092;28;20447;-75
2023/01/24 00:47:11;;;;;;;14.20;9.50;;;;;;;-0.93;100.00;97830.13;5055980;28;20462;-75
2023/01/24 00:49:38;;;;;;;14.57;10.60;;;;;;;-1.15;100.00;97797.00;5073938;28;20424;-74
2023/01/24 00:52:06;;;;;;;14.67;10.50;;;;;;;-1.16;100.00;97795.44;5072532;28;20455;-74
2023/01/24 00:54:33;;;;;;;15.00;9.27;;;;;;;-0.98;100.00;97835.16;5072282;28;20444;-74
2023/01/24 00:56:59;;;;;;;12.73;8.87;;;;;;;-1.15;100.00;97802.19;5072274;28;20451;-75
2023/01/24 00:59:26;;;;;;;15.03;8.47;;;;;;;-1.16;100.00;97809.19;5072235;28;20527;-74
2023/01/24 01:01:52;;;;;;;11.40;8.70;;;;;;;-1.02;100.00;97828.81;5072304;28;20499;-74
2023/01/24 01:04:19;;;;;;;13.90;9.67;;;;;;;-1.23;100.00;97795.47;5073709;28;20460;-74
2023/01/24 01:06:46;;;;;;;15.40;9.13;;;;;;;-0.92;100.00;97836.13;5072612;28;20470;-73
2023/01/24 01:09:13;;;;;;;10.27;8.00;;;;;;;-1.21;100.00;97794.25;5073617;28;20432;-73
2023/01/24 01:11:41;;;;;;;15.30;8.90;;;;;;;-1.04;100.00;97817.06;5074615;28;20424;-73
2023/01/24 01:14:11;;;;;;;18.27;10.63;;;;;;;-0.93;100.00;97837.13;5088640;28;20419;-73
2023/01/24 01:16:38;;;;;;;13.13;7.63;;;;;;;-0.94;100.00;97835.53;5097173;28;20673;-73
2023/01/24 01:19:05;;;;;;;11.63;8.53;;;;;;;-0.88;100.00;97839.06;5109468;28;20448;-73
2023/01/24 01:21:33;;;;;;;9.63;7.20;;;;;;;-1.10;100.00;97815.31;5080270;28;20475;-73
2023/01/24 01:24:00;;;;;;;12.03;8.77;;;;;;;-1.01;100.00;97827.81;5065197;28;20948;-73
2023/01/24 01:26:28;;;;;;;10.90;8.10;;;;;;;-1.13;100.00;97815.75;5052956;28;20468;-73
2023/01/24 01:28:55;;;;;;;12.70;9.67;;;;;;;-0.98;100.00;97845.53;5073257;28;20424;-73
2023/01/24 01:31:21;;;;;;;12.30;8.70;;;;;;;-1.06;100.00;97834.66;5072863;28;20435;-73
2023/01/24 01:33:48;;;;;;;14.87;9.47;;;;;;;-1.16;100.00;97808.41;5073374;28;20519;-73
2023/01/24 01:36:15;;;;;;;14.77;10.50;;;;;;;-0.93;100.00;97850.13;5071831;28;20464;-73
2023/01/24 01:38:41;;;;;;;11.93;8.90;;;;;;;-1.21;100.00;97801.25;5071712;28;20539;-73
2023/01/24 01:41:11;;;;;;;13.23;8.87;;;;;;;-0.97;100.00;97841.94;5071912;28;20460;-73
2023/01/24 01:44:37;;;;;;;14.30;8.67;;;;;;;-1.04;100.00;97840.44;5071577;28;20466;-73
2023/01/24 01:46:26;;;;;;;12.43;9.30;;;;;;;-0.92;100.00;97859.47;5072682;28;20566;-73
2023/01/24 01:48:59;;;;;;;12.60;9.77;;;;;;;-0.95;100.00;97850.31;5072493;28;20420;-73
2023/01/24 01:51:30;;;;;;;9.67;7.90;;;;;;;-0.99;100.00;97859.53;5071539;28;20440;-73
2023/01/24 01:54:02;;;;;;;14.03;8.97;;;;;;;-0.96;100.00;97866.88;5071442;28;20432;-73
2023/01/24 01:56:34;;;;;;;11.40;7.70;;;;;;;-1.00;100.00;97870.94;5072722;28;21063;-73
2023/01/24 01:59:09;;;;;;;10.23;6.97;;;;;;;-0.89;100.00;97874.63;5071647;28;20440;-73
2023/01/24 02:01:36;;;;;;;12.80;9.13;;;;;;;-0.90;100.00;97875.63;5071439;28;20521;-73
2023/01/24 02:04:10;;;;;;;10.53;7.07;;;;;;;-1.02;100.00;97856.56;5071290;28;20432;-72
2023/01/24 02:07:00;;;;;;;10.03;6.57;;;;;;;-1.26;100.00;97829.63;5062501;28;20519;-72
2023/01/24 02:09:32;;;;;;;9.93;8.93;;;;;;;-1.01;100.00;97869.34;5070179;28;20490;-72
2023/01/24 02:12:03;;;;;;;8.07;6.37;;;;;;;-1.19;100.00;97838.19;5071228;28;20940;-72
2023/01/24 02:17:19;;;;;;;8.53;6.80;;;;;;;-1.06;100.00;97848.44;5073483;28;20459;-73
2023/01/24 02:19:45;;;;;;;9.60;7.13;;;;;;;-0.92;100.00;97872.47;5064331;28;20436;-73
2023/01/24 02:22:16;;;;;;;8.00;6.37;;;;;;;-1.10;100.00;97844.66;5070705;28;21043;-73
2023/01/24 02:24:55;;;;;;;10.80;7.27;;;;;;;-1.04;100.00;97854.19;5071240;28;20480;-73
2023/01/24 02:27:22;;;;;;;11.73;7.00;;;;;;;-1.05;100.00;97838.84;5054238;28;20520;-73
2023/01/24 02:29:49;;;;;;;12.63;9.43;;;;;;;-1.04;100.00;97843.03;5070893;28;20895;-73
2023/01/24 02:32:18;;;;;;;7.50;6.10;;;;;;;-1.23;100.00;97824.03;5070491;28;20440;-73
2023/01/24 02:34:45;;;;;;;9.43;6.73;;;;;;;-1.13;100.00;97852.88;5054079;28;20475;-74
2023/01/24 02:37:15;;;;;;;9.77;7.73;;;;;;;-1.00;100.00;97883.91;5070733;28;20517;-73
2023/01/24 02:39:57;;;;;;;10.23;6.53;;;;;;;-0.93;100.00;97876.88;5071053;28;20849;-73
2023/01/24 02:42:29;;;;;;;10.33;6.80;;;;;;;-0.94;100.00;97879.66;5054213;28;20507;-73
2023/01/24 02:45:18;;;;;;;9.97;7.23;;;;;;;-0.91;100.00;97887.03;5070689;28;20438;-73
2023/01/24 02:47:48;;;;;;;8.70;6.50;;;;;;;-0.91;100.00;97882.63;5070424;28;20488;-73
2023/01/24 02:50:18;;;;;;;8.73;7.30;;;;;;;-1.12;100.00;97854.47;5053938;28;20881;-73
2023/01/24 02:55:31;;;;;;;9.27;6.57;;;;;;;-0.88;100.00;97883.22;5072127;28;20456;-73
2023/01/24 02:58:05;;;;;;;9.20;6.60;;;;;;;-0.92;100.00;97877.66;5050470;28;20953;-73
2023/01/24 03:00:41;;;;;;;7.43;6.07;;;;;;;-0.90;100.00;97886.03;5049951;28;20488;-72
2023/01/24 03:03:12;;;;;;;10.70;6.50;;;;;;;-0.91;100.00;97881.84;5070414;28;20450;-72
2023/01/24 03:05:56;;;;;;;6.53;5.93;;;;;;;-1.05;100.00;97852.63;5053849;28;20466;-72
2023/01/24 03:08:32;;;;;;;7.40;5.23;;;;;;;-1.01;100.00;97866.75;5060222;28;20535;-72
2023/01/24 03:11:00;;;;;;;6.93;5.70;;;;;;;-0.85;100.00;97888.75;5067088;28;20494;-72
2023/01/24 03:35:36;;;;;;;6.47;4.30;;;;;;;-0.73;100.00;97888.84;5070710;28;20932;-72
2023/01/24 03:40:52;;;;;;;6.83;5.60;;;;;;;-0.77;100.00;97885.91;5069838;28;20436;-73
2023/01/24 03:43:19;;;;;;;6.73;5.40;;;;;;;-0.86;100.00;97863.00;5052828;28;20486;-73
2023/01/24 03:45:45;;;;;;;5.93;4.27;;;;;;;-0.84;100.00;97861.00;5069747;28;20995;-72
2023/01/24 03:48:34;;;;;;;5.70;5.10;;;;;;;-0.90;100.00;97862.66;5069859;28;20472;-72
2023/01/24 03:53:48;;;;;;;6.60;5.30;;;;;;;-0.68;100.00;97889.78;5069614;28;20458;-72
2023/01/24 03:56:16;;;;;;;6.40;5.27;;;;;;;-0.80;100.00;97881.13;5052944;28;20948;-72
2023/01/24 03:58:47;;;;;;;6.47;5.50;;;;;;;-1.01;100.00;97848.56;5049481;28;20441;-72
2023/01/24 04:01:15;;;;;;;5.60;4.63;;;;;;;-1.06;100.00;97843.25;5069327;28;20464;-72
2023/01/24 04:04:11;;;;;;;7.87;5.33;;;;;;;-0.99;100.00;97848.34;5068356;28;20539;-72
2023/01/24 04:06:38;;;;;;;6.80;5.33;;;;;;;-0.76;100.00;97884.88;5069236;28;20488;-73
2023/01/24 04:09:07;;;;;;;6.23;5.63;;;;;;;-0.73;100.00;97881.84;5069229;28;20444;-73
2023/01/24 04:11:36;;;;;;;6.80;5.27;;;;;;;-0.74;100.00;97869.88;5055417;28;20432;-73
2023/01/24 04:14:09;;;;;;;5.67;4.50;;;;;;;-0.80;100.00;97881.13;5072999;28;20497;-73
2023/01/24 04:16:45;;;;;;;5.13;4.37;;;;;;;-0.76;100.00;97877.09;5057679;28;20952;-73
2023/01/24 04:19:16;;;;;;;6.73;5.70;;;;;;;-0.77;100.00;97874.72;5085701;28;20505;-73
2023/01/24 04:21:43;;;;;;;7.40;5.50;;;;;;;-0.90;100.00;97852.28;5060065;28;20459;-73
2023/01/24 04:24:11;;;;;;;6.30;5.10;;;;;;;-0.76;100.00;97871.13;5086299;28;20443;-73
2023/01/24 04:26:41;;;;;;;6.70;5.03;;;;;;;-1.04;100.00;97833.44;5086123;28;20455;-73
2023/01/24 04:29:13;;;;;;;8.30;4.90;;;;;;;-0.88;100.00;97852.06;5040135;28;20437;-73
2023/01/24 04:31:41;;;;;;;8.03;5.80;;;;;;;-0.79;100.00;97868.94;5057003;28;20439;-73
2023/01/24 04:34:18;;;;;;;5.80;5.10;;;;;;;-0.74;100.00;97858.69;5064055;28;20939;-73
2023/01/24 04:36:45;;;;;;;6.80;5.30;;;;;;;-0.98;100.00;97835.16;5066000;28;20468;-72
2023/01/24 04:39:12;;;;;;;8.80;5.73;;;;;;;-0.88;100.00;97833.88;5070988;28;20435;-73
2023/01/24 04:41:49;;;;;;;7.93;5.97;;;;;;;-0.88;100.00;97833.88;5057732;28;20467;-73
2023/01/24 04:44:16;;;;;;;8.40;4.77;;;;;;;-0.75;100.00;97863.09;5052410;28;20433;-73
2023/01/24 04:46:43;;;;;;;8.63;5.37;;;;;;;-0.78;100.00;97858.34;5083377;28;20496;-73
2023/01/24 04:49:10;;;;;;;6.07;5.47;;;;;;;-0.90;100.00;97815.94;5072522;28;20551;-73
2023/01/24 04:51:43;;;;;;;5.80;4.43;;;;;;;-0.69;100.00;97851.84;5081237;28;20435;-73
2023/01/24 04:54:17;;;;;;;5.63;5.03;;;;;;;-0.68;100.00;97835.25;5049430;28;20641;-73
2023/01/24 04:56:47;;;;;;;4.90;4.10;;;;;;;-0.81;100.00;97826.81;5065680;28;20910;-74
2023/01/24 04:59:14;;;;;;;5.40;4.90;;;;;;;-0.80;100.00;97836.19;5052491;28;20494;-74
2023/01/24 05:01:42;;;;;;;6.70;5.00;;;;;;;-0.69;100.00;97859.63;5068674;28;20479;-73
2023/01/24 05:04:21;;;;;;;6.47;5.00;;;;;;;-0.60;100.00;97860.94;5074195;28;20523;-73
2023/01/24 05:06:48;;;;;;;5.40;4.67;;;;;;;-0.66;100.00;97861.03;5057327;28;20461;-73
2023/01/24 05:09:14;;;;;;;6.10;5.20;;;;;;;-0.79;100.00;97840.38;5079056;28;20467;-73
2023/01/24 05:11:57;;;;;;;5.00;4.53;;;;;;;-0.65;100.00;97858.22;5051895;28;20441;-73
2023/01/24 05:14:24;;;;;;;4.83;4.43;;;;;;;-0.78;100.00;97844.56;5079177;28;20776;-73
2023/01/24 05:16:53;;;;;;;4.87;4.37;;;;;;;-0.87;100.00;97830.28;5065032;28;20464;-73
2023/01/24 05:19:20;;;;;;;5.97;5.20;;;;;;;-0.90;100.00;97813.34;5085328;28;20910;-73
2023/01/24 05:21:47;;;;;;;4.40;4.00;;;;;;;-0.67;100.00;97855.03;5071355;28;20456;-73
2023/01/24 05:24:14;;;;;;;5.33;4.73;;;;;;;-0.76;100.00;97845.94;5057949;28;20536;-73
2023/01/24 05:26:41;;;;;;;5.80;5.20;;;;;;;-0.51;100.00;97853.66;5055096;28;20491;-73
2023/01/24 05:29:10;;;;;;;5.07;4.50;;;;;;;-0.78;100.00;97837.56;5071508;28;20448;-73
2023/01/24 05:31:38;;;;;;;5.93;4.73;;;;;;;-0.90;100.00;97821.13;5071661;28;20523;-73
2023/01/24 05:34:05;;;;;;;5.63;4.90;;;;;;;-0.87;100.00;97840.66;5078826;28;20444;-73
2023/01/24 05:36:32;;;;;;;6.07;5.47;;;;;;;-0.80;100.00;97859.53;5076750;28;20887;-73
2023/01/24 05:39:00;;;;;;;4.90;4.50;;;;;;;-0.68;100.00;97871.59;5066915;28;20480;-73
2023/01/24 05:41:29;;;;;;;4.77;4.27;;;;;;;-0.63;100.00;97874.38;5077905;28;20564;-73
2023/01/24 05:43:57;;;;;;;7.10;5.90;;;;;;;-0.68;100.00;97863.03;5066759;28;20534;-74
2023/01/24 05:46:29;;;;;;;6.40;5.80;;;;;;;-1.39;100.00;97755.31;5071177;28;20865;-73
2023/01/24 05:49:05;;;;;;;5.80;5.20;;;;;;;-0.76;100.00;97848.53;5071321;28;20515;-73
2023/01/24 05:51:31;;;;;;;7.47;5.67;;;;;;;-0.91;100.00;97835.13;5071276;28;21016;-73
2023/01/24 05:53:58;;;;;;;9.60;5.73;;;;;;;-0.83;100.00;97854.78;5050995;28;20438;-73
2023/01/24 05:56:49;;;;;;;8.83;6.43;;;;;;;-0.68;100.00;97874.19;5067211;28;20446;-73
2023/01/24 05:59:16;;;;;;;5.83;4.53;;;;;;;-0.52;100.00;97879.84;5063745;28;21039;-73
2023/01/24 06:01:43;;;;;;;9.70;5.03;;;;;;;-0.54;100.00;97879.25;5061971;28;20459;-73
2023/01/24 06:04:09;;;;;;;5.93;4.90;;;;;;;-0.88;100.00;97837.28;5061021;28;20462;-73
2023/01/24 06:06:37;;;;;;;6.80;6.10;;;;;;;-0.77;100.00;97866.94;5066721;28;20472;-73
2023/01/24 06:09:04;;;;;;;8.60;5.70;;;;;;;-0.78;100.00;97857.56;5054012;28;20959;-73
2023/01/24 06:11:33;;;;;;;5.17;4.67;;;;;;;-0.52;100.00;97898.03;5070911;28;20985;-74
2023/01/24 06:14:11;;;;;;;5.90;5.30;;;;;;;-0.67;100.00;97870.63;5080468;28;20457;-74
2023/01/24 06:16:46;;;;;;;9.40;5.87;;;;;;;-0.50;100.00;97902.00;5062163;28;20478;-74
2023/01/24 06:19:14;;;;;;;9.13;5.00;;;;;;;-0.47;100.00;97892.97;5083745;28;20459;-74
2023/01/24 06:21:50;;;;;;;5.23;4.80;;;;;;;-0.48;100.00;97894.78;5083084;28;20541;-74
2023/01/24 06:24:23;;;;;;;5.97;4.10;;;;;;;-0.42;100.00;97903.50;5049483;28;20500;-73
2023/01/24 06:27:09;;;;;;;5.93;4.93;;;;;;;-0.73;100.00;97863.69;5041734;28;20493;-74
2023/01/24 06:29:36;;;;;;;5.00;4.43;;;;;;;-0.63;100.00;97892.53;5072717;28;20458;-73
2023/01/24 06:32:15;;;;;;;8.43;5.43;;;;;;;-1.00;100.00;97831.19;5078179;28;20426;-74
2023/01/24 06:35:11;;;;;;;6.97;5.47;;;;;;;-0.48;100.00;97907.78;5076455;28;20527;-74
2023/01/24 06:37:45;;;;;;;5.73;4.60;;;;;;;-0.42;100.00;97911.28;5060139;28;20452;-74
2023/01/24 06:40:14;;;;;;;6.00;5.50;;;;;;;-0.50;100.00;97911.59;5083936;28;20420;-74
2023/01/24 06:42:41;;;;;;;7.73;5.10;;;;;;;-0.75;100.00;97868.28;5082017;28;20490;-74
2023/01/24 06:45:09;;;;;;;6.83;5.17;;;;;;;-0.61;100.00;97893.13;5053601;28;20443;-74
2023/01/24 06:47:36;;;;;;;5.40;4.87;;;;;;;-0.56;100.00;97899.47;5050267;28;20473;-74
2023/01/24 06:50:04;;;;;;;5.83;4.40;;;;;;;-0.37;100.00;97919.25;5055894;28;20547;-71
2023/01/24 06:52:31;;;;;;;5.57;4.87;;;;;;;-0.70;100.00;97886.59;5071675;28;20512;-71
2023/01/24 06:54:58;;;;;;;8.30;5.90;;;;;;;-0.44;100.00;97923.72;5071690;28;20438;-71
2023/01/24 06:57:25;;;;;;;8.43;6.43;;;;;;;-0.47;100.00;97921.56;5070248;28;20553;-71
2023/01/24 06:59:51;;;;;;;5.43;4.53;;;;;;;-0.56;100.00;97913.25;5077993;28;20423;-71
2023/01/24 07:02:18;;;;;;;7.10;5.93;;;;;;;-0.62;100.00;97904.50;5092888;28;20459;-72
2023/01/24 07:04:44;;;;;;;8.03;5.53;;;;;;;-0.60;100.00;97906.91;5077318;28;20421;-73
2023/01/24 07:07:11;;;;;;;7.57;5.37;;;;;;;-0.52;100.00;97911.81;5061962;28;20531;-71
2023/01/24 07:09:38;;;;;;;7.43;5.40;;;;;;;-0.42;100.00;97925.09;5076669;28;20794;-71
2023/01/24 07:12:04;;;;;;;8.50;6.60;;;;;;;-0.55;100.00;97907.03;5071599;28;20416;-73
2023/01/24 07:14:31;;;;;;;6.73;6.00;;;;;;;-0.42;100.00;97935.47;5076829;28;20419;-73
2023/01/24 07:16:58;;;;;;;7.03;5.10;;;;;;;-0.45;100.00;97927.31;5063165;28;20999;-73
2023/01/24 07:19:25;;;;;;;6.40;5.23;;;;;;;-0.42;100.00;97929.47;5065023;28;20518;-73
2023/01/24 07:21:53;;;;;;;6.60;5.07;;;;;;;-0.59;100.00;97905.88;5077671;28;20994;-73
2023/01/24 07:24:22;;;;;;;8.80;5.37;;;;;;;-0.66;100.00;97892.97;5065560;28;20518;-73
2023/01/24 07:26:50;;;;;;;7.00;6.13;;;;;;;-0.44;100.00;97926.31;5082303;28;20546;-73
2023/01/24 07:29:21;;;;;;;7.77;6.13;;;;;;;-0.48;100.00;97918.16;5049636;28;20449;-73
2023/01/24 07:31:48;;;;;;;7.70;5.80;;;;;;;-0.51;100.00;97930.78;5066379;28;20829;-73
2023/01/24 07:34:17;;;;;;;8.97;6.20;;;;;;;-1.00;100.00;97857.94;5081418;28;21086;-73
2023/01/24 07:36:45;;;;;;;6.93;6.13;;;;;;;-0.46;100.00;97947.31;5069770;28;20816;-73
2023/01/24 07:39:12;;;;;;;10.73;7.03;;;;;;;-0.42;100.00;97943.28;5078829;28;20519;-73
2023/01/24 07:41:42;;;;;;;7.33;5.70;;;;;;;-0.39;100.00;97950.66;5076093;28;20475;-73
2023/01/24 07:44:09;;;;;;;7.17;5.60;;;;;;;-0.37;100.00;97953.81;5063463;28;20444;-73
2023/01/24 07:46:36;;;;;;;6.13;5.53;;;;;;;-0.52;100.00;97937.78;5072189;28;20459;-73
2023/01/24 07:49:03;;;;;;;9.10;6.80;;;;;;;-0.41;100.00;97955.25;5071140;28;20429;-73
2023/01/24 07:51:30;;;;;;;7.80;6.80;;;;;;;-0.40;100.00;97961.25;5067906;28;20510;-73
2023/01/24 07:53:57;;;;;;;8.80;6.57;;;;;;;-0.53;100.00;97941.41;5069586;28;20436;-73
2023/01/24 07:56:23;;;;;;;8.50;5.80;;;;;;;-0.61;100.00;97926.09;5073305;28;20542;-73
2023/01/24 07:58:52;;;;;;;7.33;6.20;;;;;;;-0.60;100.00;97919.88;5068382;28;20811;-73
2023/01/24 08:01:21;;;;;;;7.87;7.07;;;;;;;-0.36;100.00;97954.63;5053725;28;20448;-73
2023/01/24 08:03:49;;;;;;;7.97;5.90;;;;;;;-0.37;100.00;97963.44;5081055;28;20467;-73
2023/01/24 08:06:17;;;;;;;9.50;5.97;;;;;;;-0.38;100.00;97967.84;5070938;28;20917;-73
2023/01/24 08:08:43;;;;;;;12.50;7.03;;;;;;;-0.35;100.00;97971.81;5052737;28;20940;-73
2023/01/24 08:11:13;;;;;;;7.50;6.47;;;;;;;-0.40;100.00;97969.03;5070590;28;20424;-73
2023/01/24 08:13:40;;;;;;;9.90;8.10;;;;;;;-0.38;100.00;97969.63;5082937;28;20469;-73
2023/01/24 08:16:07;;;;;;;7.70;6.90;;;;;;;-0.36;100.00;97980.59;5049178;28;20457;-73
2023/01/24 08:18:34;;;;;;;10.40;8.57;;;;;;;-0.40;100.00;97977.66;5082630;28;20488;-73
2023/01/24 08:21:01;;;;;;;7.23;6.37;;;;;;;-0.65;100.00;97938.72;5069233;28;20442;-73
2023/01/24 08:23:27;;;;;;;10.83;7.10;;;;;;;-0.47;100.00;97957.94;5069055;28;21069;-73
2023/01/24 08:25:57;;;;;;;8.40;7.43;;;;;;;-0.40;100.00;97980.25;5075785;28;20439;-73
2023/01/24 08:28:24;;;;;;;9.10;7.50;;;;;;;-0.38;100.00;97985.22;5062909;28;20903;-73
2023/01/24 08:30:50;;;;;;;8.50;6.43;;;;;;;-0.32;100.00;97997.34;5065020;28;20430;-73
2023/01/24 08:33:18;;;;;;;10.47;7.93;;;;;;;-0.38;100.00;97985.22;5061542;28;20495;-73
2023/01/24 08:35:46;;;;;;;7.70;5.97;;;;;;;-0.40;100.00;97974.22;5064365;28;20880;-73
2023/01/24 08:38:14;;;;;;;10.43;6.97;;;;;;;-0.23;100.00;98001.25;5055689;28;20851;-73
2023/01/24 08:40:41;;;;;;;8.93;6.57;;;;;;;-0.31;100.00;97994.53;5060475;28;20889;-73
2023/01/24 08:43:16;;;;;;;10.80;7.40;;;;;;;-0.23;100.00;98011.66;5059759;28;21046;-73
2023/01/24 08:45:43;;;;;;;8.43;7.40;;;;;;;-0.20;100.00;98007.81;5070228;28;20466;-73
2023/01/24 08:48:09;;;;;;;10.97;7.70;;;;;;;-0.33;100.00;97985.38;5071560;28;20784;-73
2023/01/24 08:50:36;;;;;;;7.43;6.73;;;;;;;-0.19;100.00;98010.22;5070211;28;20433;-73
2023/01/24 08:53:03;;;;;;;9.13;8.23;;;;;;;-0.41;100.00;97970.03;5075852;28;20781;-73
2023/01/24 08:55:29;;;;;;;9.07;7.30;;;;;;;-0.36;100.00;97976.19;5058644;28;20428;-73
2023/01/24 08:58:01;;;;;;;11.27;7.83;;;;;;;-0.37;100.00;97985.00;5071451;28;20876;-73
2023/01/24 09:00:27;;;;;;;10.03;7.40;;;;;;;-0.24;100.00;98009.28;5052454;28;20796;-73
2023/01/24 09:02:54;;;;;;;11.70;9.03;;;;;;;-0.20;100.00;98007.81;5065092;28;20471;-73
2023/01/24 09:05:21;;;;;;;8.33;7.53;;;;;;;-0.11;100.00;98007.34;5057454;28;20474;-73
2023/01/24 09:07:48;;;;;;;8.90;6.90;;;;;;;-0.16;100.00;98009.78;5075989;28;20865;-73
2023/01/24 09:10:15;;;;;;;9.90;6.80;;;;;;;-0.40;100.00;97982.84;5077083;28;20439;-73
2023/01/24 09:12:42;;;;;;;7.63;6.70;;;;;;;-0.47;100.00;97971.72;5077429;28;20423;-73
2023/01/24 09:15:09;;;;;;;9.23;8.23;;;;;;;-0.22;100.00;98015.06;5080223;28;20476;-73
2023/01/24 09:17:37;;;;;;;9.53;7.10;;;;;;;-0.29;100.00;97989.13;5090725;28;20443;-72
2023/01/24 09:20:05;;;;;;;9.63;7.97;;;;;;;-0.27;100.00;97989.69;5079921;28;20530;-72
2023/01/24 09:22:31;;;;;;;8.13;7.03;;;;;;;-0.17;100.00;98015.19;5068801;28;20472;-74
2023/01/24 09:24:58;;;;;;;10.57;7.60;;;;;;;-0.39;100.00;97983.63;5042795;28;20522;-74
2023/01/24 09:27:25;;;;;;;8.43;7.47;;;;;;;-0.09;100.00;98015.72;5071762;28;20475;-73
2023/01/24 09:29:51;;;;;;;8.80;7.20;;;;;;;-0.21;100.00;98020.03;5084939;28;20447;-74
2023/01/24 09:32:18;;;;;;;11.30;6.80;;;;;;;-0.42;100.00;97984.03;5067745;28;20429;-73
2023/01/24 09:34:47;;;;;;;8.53;7.63;;;;;;;-0.45;100.00;97979.28;5066364;28;20935;-73
2023/01/24 09:37:22;;;;;;;9.33;6.57;;;;;;;-0.02;100.00;98037.22;5078705;28;20520;-73
2023/01/24 09:39:48;;;;;;;9.73;7.10;;;;;;;-0.04;100.00;98033.25;5078507;28;20440;-73
2023/01/24 09:42:29;;;;;;;9.67;7.70;;;;;;;-0.06;100.00;98038.66;5076017;28;20930;-74
2023/01/24 09:45:08;;;;;;;8.83;6.60;;;;;;;-0.05;100.00;98031.66;5051914;28;20424;-74
2023/01/24 09:47:53;;;;;;;11.17;8.37;;;;;;;0.01;100.00;98035.22;5084768;28;20435;-74
2023/01/24 09:50:25;;;;;;;7.00;6.30;;;;;;;-0.02;100.00;98026.81;5059176;28;20437;-74
2023/01/24 09:52:54;;;;;;;9.53;7.67;;;;;;;0.07;100.00;98024.75;5083153;28;20443;-74
2023/01/24 09:55:34;;;;;;;12.63;7.47;;;;;;;-0.02;100.00;98020.84;5060407;28;20897;-74
2023/01/24 09:58:01;;;;;;;10.63;7.00;;;;;;;0.07;100.00;98029.94;5072653;28;20815;-74
2023/01/24 10:00:30;;;;;;;9.77;7.30;;;;;;;-0.24;100.00;97989.28;5071337;28;20888;-74
2023/01/24 10:02:59;;;;;;;8.07;7.17;;;;;;;0.00;100.00;98026.63;5079947;28;20505;-74
2023/01/24 10:05:38;;;;;;;11.63;7.37;;;;;;;-0.06;100.00;98033.47;5063326;28;20936;-74
2023/01/24 10:08:20;;;;;;;11.70;8.50;;;;;;;-0.03;100.00;98024.44;5071064;28;20778;-74
2023/01/24 10:10:56;;;;;;;9.23;7.03;;;;;;;-0.02;100.00;98029.41;5071103;28;20442;-74
2023/01/24 10:13:42;;;;;;;9.57;6.33;;;;;;;-0.30;100.00;97990.13;5083665;28;20777;-74
2023/01/24 10:16:45;;;;;;;11.10;7.30;;;;;;;0.00;100.00;98013.63;5059340;28;20531;-74
2023/01/24 10:19:36;;;;;;;7.43;5.90;;;;;;;0.03;100.00;98020.19;5067423;28;20546;-74
2023/01/24 10:22:25;;;;;;;8.07;7.10;;;;;;;-0.14;100.00;98002.53;5072777;28;20437;-74
2023/01/24 10:25:02;;;;;;;8.53;7.10;;;;;;;-0.01;100.00;98020.59;5079402;28;20936;-72
2023/01/24 10:27:38;;;;;;;7.50;6.80;;;;;;;-0.02;100.00;98013.03;5070926;28;20455;-74
2023/01/24 10:30:16;;;;;;;8.63;6.30;;;;;;;0.04;100.00;98016.59;5070946;28;20442;-74
2023/01/24 10:32:47;;;;;;;9.60;8.00;;;;;;;-0.02;100.00;98002.63;5070770;28;20436;-74
2023/01/24 10:35:19;;;;;;;11.50;7.67;;;;;;;0.17;100.00;98016.44;5080743;28;20512;-72
2023/01/24 10:37:55;;;;;;;8.27;6.40;;;;;;;0.00;100.00;97992.84;5075043;28;20442;-74
2023/01/24 10:40:27;;;;;;;8.50;7.67;;;;;;;0.15;100.00;98006.25;5077178;28;20473;-74
2023/01/24 10:42:54;;;;;;;9.70;7.67;;;;;;;-0.11;100.00;97970.94;5078972;28;20464;-74
2023/01/24 10:45:32;;;;;;;8.23;6.50;;;;;;;0.20;100.00;98016.78;5077519;28;20433;-75
2023/01/24 10:48:25;;;;;;;9.50;7.30;;;;;;;0.17;100.00;98006.84;5068531;28;20440;-74
2023/01/24 10:50:52;;;;;;;11.37;8.40;;;;;;;0.09;100.00;97995.91;5038837;28;20531;-74
2023/01/24 10:53:27;;;;;;;9.07;7.23;;;;;;;0.15;100.00;98021.88;5069165;28;20432;-74
2023/01/24 10:56:00;;;;;;;10.13;8.07;;;;;;;0.04;100.00;98009.59;5084024;28;20476;-74
2023/01/24 10:58:57;;;;;;;7.07;6.37;;;;;;;0.12;100.00;98000.69;5061899;28;20450;-74
2023/01/24 11:01:39;;;;;;;10.63;7.90;;;;;;;0.04;100.00;97978.38;5024914;28;20527;-74
2023/01/24 11:04:33;;;;;;;13.97;8.83;;;;;;;0.13;100.00;98000.47;5084938;28;20450;-74
2023/01/24 11:07:01;;;;;;;10.90;8.30;;;;;;;0.00;100.00;97961.63;5066571;28;21067;-72
2023/01/24 11:09:31;;;;;;;9.60;7.50;;;;;;;0.19;100.00;97983.22;5070114;28;20436;-73
2023/01/24 11:11:59;;;;;;;7.90;6.90;;;;;;;-0.01;100.00;97953.00;5059005;28;20437;-72
2023/01/24 11:14:30;;;;;;;8.40;7.40;;;;;;;-0.16;100.00;97931.00;5069579;28;20431;-72
2023/01/24 11:16:59;;;;;;;7.47;6.57;;;;;;;0.25;100.00;97977.13;5083551;28;20550;-72
2023/01/24 11:19:32;;;;;;;8.43;6.63;;;;;;;0.27;100.00;97977.72;5062890;28;20949;-72
2023/01/24 11:22:02;;;;;;;12.00;7.70;;;;;;;0.33;100.00;97974.22;5049577;28;20918;-73
2023/01/24 11:24:29;;;;;;;12.27;7.83;;;;;;;0.17;100.00;97931.41;5034282;28;20461;-73
2023/01/24 11:27:16;;;;;;;8.60;6.67;;;;;;;0.40;100.00;97974.94;5050040;28;20441;-72
2023/01/24 11:29:43;;;;;;;10.13;8.60;;;;;;;0.05;100.00;97937.56;5050068;28;20425;-72
2023/01/24 11:32:15;;;;;;;9.10;7.03;;;;;;;0.20;100.00;97974.38;5051233;28;20437;-72
2023/01/24 11:34:45;;;;;;;8.80;7.43;;;;;;;0.32;100.00;97967.44;5063445;28;20462;-72
2023/01/24 11:37:21;;;;;;;10.53;8.10;;;;;;;0.37;100.00;97962.38;5070332;28;20472;-72
2023/01/24 11:39:57;;;;;;;11.03;8.27;;;;;;;0.26;100.00;97961.28;5083631;28;20427;-73
2023/01/24 11:42:43;;;;;;;16.50;8.97;;;;;;;0.35;100.00;97961.78;5055759;28;20420;-73
2023/01/24 11:45:25;;;;;;;9.90;7.90;;;;;;;0.09;100.00;97933.50;5054431;28;20440;-73
2023/01/24 11:48:06;;;;;;;9.73;8.40;;;;;;;0.20;100.00;97954.38;5071205;28;20777;-73
2023/01/24 11:50:48;;;;;;;9.07;7.70;;;;;;;0.11;100.00;97952.28;5071134;28;20478;-73
2023/01/24 11:53:37;;;;;;;8.30;7.13;;;;;;;0.13;100.00;97953.66;5080046;28;20475;-73
2023/01/24 11:56:40;;;;;;;8.70;7.40;;;;;;;-0.03;100.00;97936.06;5049563;28;20506;-73
2023/01/24 11:59:27;;;;;;;10.97;8.60;;;;;;;0.16;100.00;97958.44;5049678;28;20435;-73
2023/01/24 12:02:22;;;;;;;9.60;7.53;;;;;;;0.19;100.00;97971.00;5049650;28;20437;-73
2023/01/24 12:05:24;;;;;;;9.23;7.03;;;;;;;-0.11;100.00;97933.75;5064445;28;20454;-73
2023/01/24 12:08:03;;;;;;;8.63;7.27;;;;;;;0.09;100.00;97957.72;5035901;28;20495;-73
2023/01/24 12:10:49;;;;;;;9.60;7.53;;;;;;;0.13;100.00;97955.47;5062859;28;20435;-73
2023/01/24 12:13:47;;;;;;;10.20;7.90;;;;;;;0.15;100.00;97958.66;5069523;28;20428;-73
2023/01/24 12:16:42;;;;;;;8.97;7.07;;;;;;;0.04;100.00;97941.97;5070927;28;20525;-73